Time;durP1;ratioP1;P1;durP2;ratioP2;P2;SDS_P1;SDS_P2;PMS_P1;PMS_P2;Temp;Humidity;BMP_temperature;BMP_pressure;BME280_temperature;BME280_humidity;BME280_pressure;Samples;Min_cycle;Max_cycle;Signal;HPM_P1;HPM_P2
2022/05/14 00:01:33;;;;;;;28.02;7.10;;;;;;;11.60;100.00;101780.00;4728756;29;20119;-71
2022/05/14 00:03:59;;;;;;;26.70;7.82;;;;;;;11.54;100.00;101778.09;4717519;29;21767;-71
2022/05/14 00:06:27;;;;;;;23.25;6.93;;;;;;;11.53;100.00;101779.13;4731206;29;20038;-71
2022/05/14 00:08:54;;;;;;;24.63;6.38;;;;;;;11.46;100.00;101770.16;4727087;29;20031;-71
2022/05/14 00:14:05;;;;;;;27.02;8.15;;;;;;;11.45;100.00;101777.41;4718639;29;20120;-71
2022/05/14 00:16:32;;;;;;;21.90;7.47;;;;;;;11.41;100.00;101775.31;4730276;29;20752;-71
2022/05/14 00:18:59;;;;;;;18.75;7.63;;;;;;;11.40;100.00;101770.94;4713669;29;20036;-71
2022/05/14 00:21:25;;;;;;;20.45;6.47;;;;;;;11.29;100.00;101757.97;4725956;29;20080;-71
2022/05/14 00:23:51;;;;;;;23.52;8.38;;;;;;;11.21;100.00;101761.66;4714546;29;20043;-71
2022/05/14 00:26:17;;;;;;;24.45;7.50;;;;;;;11.21;100.00;101769.75;4726681;29;20416;-71
2022/05/14 00:28:42;;;;;;;29.00;8.88;;;;;;;11.14;100.00;101756.19;4712092;29;20042;-71
2022/05/14 00:31:09;;;;;;;20.60;6.68;;;;;;;11.06;100.00;101758.22;4710899;29;20055;-73
2022/05/14 00:33:35;;;;;;;24.80;7.35;;;;;;;11.01;100.00;101755.25;4697631;29;20076;-71
2022/05/14 00:36:00;;;;;;;23.13;8.45;;;;;;;11.01;100.00;101761.47;4727157;29;20258;-71
2022/05/14 00:38:26;;;;;;;28.73;7.60;;;;;;;11.02;100.00;101756.91;4712681;29;20607;-71
2022/05/14 00:41:00;;;;;;;25.83;8.52;;;;;;;10.96;100.00;101766.63;4730283;29;20716;-71
2022/05/14 00:43:26;;;;;;;35.38;9.00;;;;;;;11.01;100.00;101776.81;4716595;29;20053;-71
2022/05/14 00:46:08;;;;;;;30.58;8.27;;;;;;;10.92;100.00;101785.03;4711393;29;21017;-71
2022/05/14 00:48:37;;;;;;;26.95;8.85;;;;;;;10.86;100.00;101779.56;4724965;29;20756;-71
2022/05/14 00:51:03;;;;;;;29.02;8.95;;;;;;;10.84;100.00;101781.63;4714100;29;20047;-71
2022/05/14 00:53:36;;;;;;;31.40;8.90;;;;;;;10.83;100.00;101785.34;4725274;29;20043;-71
2022/05/14 00:56:04;;;;;;;29.95;8.88;;;;;;;10.87;100.00;101792.03;4728623;29;20069;-71
2022/05/14 00:58:35;;;;;;;21.40;9.07;;;;;;;10.91;100.00;101793.31;4700402;29;20119;-71
2022/05/14 01:01:01;;;;;;;34.55;9.60;;;;;;;10.91;100.00;101796.00;4724027;29;20043;-71
2022/05/14 01:03:26;;;;;;;31.63;9.73;;;;;;;10.88;100.00;101799.94;4714595;29;20032;-70
2022/05/14 01:05:53;;;;;;;29.17;9.68;;;;;;;10.85;100.00;101794.09;4701391;29;20067;-71
2022/05/14 01:08:18;;;;;;;28.60;10.18;;;;;;;10.89;100.00;101795.38;4731055;29;20537;-70
2022/05/14 01:10:45;;;;;;;23.95;9.25;;;;;;;10.89;100.00;101796.19;4700137;29;20054;-70
2022/05/14 01:13:11;;;;;;;31.23;10.15;;;;;;;10.89;100.00;101798.06;4711885;29;20042;-70
2022/05/14 01:15:48;;;;;;;34.35;11.10;;;;;;;10.96;100.00;101796.28;4716867;29;20085;-70
2022/05/14 01:18:15;;;;;;;30.83;9.65;;;;;;;10.99;100.00;101791.34;4730113;29;20818;-70
2022/05/14 01:20:51;;;;;;;32.97;10.43;;;;;;;11.04;100.00;101793.44;4710398;29;20130;-71
2022/05/14 01:26:29;;;;;;;28.25;10.18;;;;;;;11.07;100.00;101789.53;4716465;29;20054;-72
2022/05/14 01:29:06;;;;;;;33.63;11.02;;;;;;;11.18;100.00;101800.63;4712929;29;20063;-71
2022/05/14 01:31:33;;;;;;;33.45;10.70;;;;;;;11.20;100.00;101797.75;4719270;29;20150;-71
2022/05/14 01:34:02;;;;;;;30.58;10.50;;;;;;;11.14;100.00;101782.34;4734564;29;20050;-71
2022/05/14 01:36:27;;;;;;;30.25;10.50;;;;;;;11.14;100.00;101799.34;4734538;29;21616;-71
2022/05/14 01:38:56;;;;;;;33.45;11.63;;;;;;;11.12;100.00;101801.38;4728389;29;20111;-71
2022/05/14 01:41:22;;;;;;;31.80;10.57;;;;;;;11.07;100.00;101792.22;4733109;29;20506;-71
2022/05/14 01:43:48;;;;;;;31.17;12.13;;;;;;;11.02;100.00;101798.22;4721230;29;22750;-71
2022/05/14 01:46:13;;;;;;;37.33;11.68;;;;;;;10.96;100.00;101801.66;4717832;29;20683;-71
2022/05/14 01:48:38;;;;;;;33.83;12.65;;;;;;;10.93;100.00;101794.78;4726611;29;20219;-71
2022/05/14 01:51:04;;;;;;;29.80;12.02;;;;;;;10.85;100.00;101794.09;4734033;29;20078;-71
2022/05/14 01:53:30;;;;;;;32.53;12.55;;;;;;;10.78;100.00;101795.88;4731580;29;20036;-71
2022/05/14 01:55:55;;;;;;;45.03;13.00;;;;;;;10.70;100.00;101794.13;4727577;29;20160;-72
2022/05/14 01:58:36;;;;;;;41.63;13.52;;;;;;;10.64;100.00;101782.25;4732965;29;20043;-71
2022/05/14 02:01:29;;;;;;;39.28;14.32;;;;;;;10.64;100.00;101798.41;4704351;29;20500;-71
2022/05/14 02:03:57;;;;;;;39.97;14.03;;;;;;;10.60;100.00;101799.84;4717500;29;20058;-71
2022/05/14 02:06:24;;;;;;;49.50;14.35;;;;;;;10.63;100.00;101801.28;4712485;29;20315;-71
2022/05/14 02:08:49;;;;;;;48.92;14.80;;;;;;;10.65;100.00;101794.69;4713201;29;20065;-71
2022/05/14 02:11:15;;;;;;;36.92;14.18;;;;;;;10.64;100.00;101795.72;4717536;29;20067;-72
2022/05/14 02:13:42;;;;;;;39.25;13.98;;;;;;;10.68;100.00;101799.72;4716531;29;20045;-72
2022/05/14 02:16:08;;;;;;;41.95;14.10;;;;;;;10.71;100.00;101799.34;4715302;29;22079;-72
2022/05/14 02:18:34;;;;;;;50.35;14.23;;;;;;;10.68;100.00;101798.88;4714674;29;23271;-72
2022/05/14 02:20:59;;;;;;;50.70;14.10;;;;;;;10.64;100.00;101790.34;4720377;29;20292;-72
2022/05/14 02:23:25;;;;;;;50.85;15.48;;;;;;;10.62;100.00;101789.69;4718165;29;20070;-72
2022/05/14 02:25:50;;;;;;;44.42;13.73;;;;;;;10.54;100.00;101781.72;4732415;29;20515;-72
2022/05/14 02:28:16;;;;;;;41.78;13.93;;;;;;;10.47;100.00;101788.91;4717092;29;20130;-72
2022/05/14 02:30:41;;;;;;;50.67;15.43;;;;;;;10.38;100.00;101792.72;4730366;29;20510;-71
2022/05/14 02:33:07;;;;;;;42.70;14.65;;;;;;;10.28;100.00;101790.28;4712426;29;24427;-72
2022/05/14 02:35:32;;;;;;;47.53;14.68;;;;;;;10.18;100.00;101790.59;4730612;29;20438;-72
2022/05/14 02:37:58;;;;;;;52.55;16.73;;;;;;;10.18;100.00;101795.09;4727972;29;20043;-72
2022/05/14 02:40:23;;;;;;;54.90;15.82;;;;;;;10.19;100.00;101800.31;4731109;29;20055;-72
2022/05/14 02:42:49;;;;;;;45.85;13.80;;;;;;;10.15;100.00;101803.59;4732693;29;20114;-72
2022/05/14 02:45:14;;;;;;;53.00;16.58;;;;;;;10.08;100.00;101808.88;4702493;29;20047;-72
2022/05/14 02:47:40;;;;;;;51.90;15.70;;;;;;;10.04;100.00;101802.19;4733259;29;20035;-70
2022/05/14 02:50:08;;;;;;;53.42;17.13;;;;;;;10.02;100.00;101821.19;4717458;29;20103;-72
2022/05/14 02:52:33;;;;;;;61.25;16.80;;;;;;;9.97;100.00;101812.88;4729175;29;20134;-70
2022/05/14 02:54:59;;;;;;;52.90;15.88;;;;;;;9.91;100.00;101812.75;4723849;29;20045;-70
2022/05/14 02:57:24;;;;;;;61.08;17.20;;;;;;;9.86;100.00;101804.38;4702012;29;20069;-70
2022/05/14 02:59:50;;;;;;;59.95;17.20;;;;;;;9.86;100.00;101812.47;4731455;29;20130;-70
2022/05/14 03:02:15;;;;;;;50.47;16.55;;;;;;;9.86;100.00;101809.78;4727984;29;20050;-70
2022/05/14 03:04:42;;;;;;;60.80;17.05;;;;;;;9.85;100.00;101816.19;4728156;29;20118;-70
2022/05/14 03:07:09;;;;;;;51.08;17.45;;;;;;;9.81;100.00;101823.78;4702309;29;20080;-71
2022/05/14 03:09:36;;;;;;;69.93;18.27;;;;;;;9.75;100.00;101819.97;4730959;29;20043;-70
2022/05/14 03:12:02;;;;;;;75.20;19.40;;;;;;;9.78;100.00;101824.97;4703678;29;22965;-71
2022/05/14 03:14:27;;;;;;;62.75;19.08;;;;;;;9.85;100.00;101825.09;4714799;29;20046;-71
2022/05/14 03:16:53;;;;;;;60.25;17.42;;;;;;;9.76;100.00;101821.66;4701132;29;20428;-71
2022/05/14 03:19:19;;;;;;;58.30;17.67;;;;;;;9.68;100.00;101820.88;4724684;29;20155;-70
2022/05/14 03:21:44;;;;;;;66.30;18.80;;;;;;;9.64;100.00;101822.28;4734099;29;20585;-71
2022/05/14 03:24:10;;;;;;;57.00;18.92;;;;;;;9.63;100.00;101818.75;4725712;29;20037;-71
2022/05/14 03:26:37;;;;;;;67.38;19.73;;;;;;;9.63;100.00;101810.69;4712818;29;20035;-71
2022/05/14 03:29:03;;;;;;;63.15;20.65;;;;;;;9.60;100.00;101821.81;4716765;29;20156;-71
2022/05/14 03:31:29;;;;;;;67.43;19.85;;;;;;;9.58;100.00;101815.75;4712076;29;20762;-71
2022/05/14 03:33:54;;;;;;;72.85;20.42;;;;;;;9.57;100.00;101822.16;4710416;29;20039;-71
2022/05/14 03:36:20;;;;;;;63.25;19.55;;;;;;;9.57;100.00;101823.00;4711450;29;20504;-71
2022/05/14 03:38:45;;;;;;;65.75;21.48;;;;;;;9.57;100.00;101822.16;4726349;29;20125;-70
2022/05/14 03:41:11;;;;;;;60.38;20.90;;;;;;;9.55;100.00;101819.66;4732308;29;20735;-71
2022/05/14 03:43:37;;;;;;;66.03;20.48;;;;;;;9.54;100.00;101827.91;4713254;29;20062;-71
2022/05/14 03:46:02;;;;;;;75.38;21.77;;;;;;;9.51;100.00;101839.88;4717609;29;20118;-71
2022/05/14 03:48:28;;;;;;;72.30;23.05;;;;;;;9.50;100.00;101842.75;4715782;29;20579;-70
2022/05/14 03:50:53;;;;;;;73.25;22.85;;;;;;;9.56;100.00;101836.66;4702730;29;20125;-71
2022/05/14 03:53:19;;;;;;;69.75;21.23;;;;;;;9.56;100.00;101832.09;4731229;29;20500;-70
2022/05/14 03:55:44;;;;;;;67.70;21.73;;;;;;;9.57;100.00;101838.31;4700221;29;20534;-71
2022/05/14 03:58:11;;;;;;;78.53;23.35;;;;;;;9.62;100.00;101846.69;4715908;29;20489;-71
2022/05/14 04:00:36;;;;;;;66.72;22.55;;;;;;;9.65;100.00;101846.31;4731341;29;22391;-71
2022/05/14 04:03:02;;;;;;;70.45;23.80;;;;;;;9.69;100.00;101849.47;4718587;29;20070;-70
2022/05/14 04:05:27;;;;;;;81.95;23.95;;;;;;;9.73;100.00;101846.25;4731238;29;20066;-71
2022/05/14 04:07:53;;;;;;;72.10;23.35;;;;;;;9.72;100.00;101841.88;4700763;29;21282;-71
2022/05/14 04:10:19;;;;;;;72.95;23.75;;;;;;;9.68;100.00;101845.94;4715121;29;20072;-71
2022/05/14 04:12:45;;;;;;;85.25;25.67;;;;;;;9.67;100.00;101838.88;4718565;29;20188;-71
2022/05/14 04:15:11;;;;;;;80.82;24.00;;;;;;;9.72;100.00;101858.03;4716574;29;20062;-71
2022/05/14 04:17:37;;;;;;;91.85;25.35;;;;;;;9.71;100.00;101859.03;4714543;29;20526;-71
2022/05/14 04:20:04;;;;;;;83.03;25.17;;;;;;;9.71;100.00;101856.34;4714916;29;20030;-71
2022/05/14 04:22:30;;;;;;;77.10;22.98;;;;;;;9.78;100.00;101851.06;4715855;29;20043;-71
2022/05/14 04:24:55;;;;;;;72.82;24.00;;;;;;;9.91;100.00;101861.22;4702529;29;21264;-71
2022/05/14 04:27:21;;;;;;;75.15;23.80;;;;;;;9.93;100.00;101859.16;4716923;29;20081;-71
2022/05/14 04:29:47;;;;;;;73.72;24.85;;;;;;;9.97;100.00;101857.78;4718113;29;20061;-71
2022/05/14 04:32:12;;;;;;;88.82;24.85;;;;;;;10.04;100.00;101861.41;4716358;29;20142;-72
2022/05/14 04:34:38;;;;;;;79.88;24.95;;;;;;;10.08;100.00;101867.28;4719034;29;20054;-71
2022/05/14 04:37:03;;;;;;;75.10;23.60;;;;;;;10.12;100.00;101865.88;4731455;29;20513;-71
2022/05/14 04:39:32;;;;;;;80.43;24.60;;;;;;;10.15;100.00;101871.72;4712590;29;21607;-71
2022/05/14 04:42:02;;;;;;;72.25;21.77;;;;;;;10.24;100.00;101878.66;4718558;29;20051;-72
2022/05/14 04:44:28;;;;;;;72.70;22.95;;;;;;;10.30;100.00;101869.06;4713790;29;20047;-72
2022/05/14 04:46:54;;;;;;;77.25;24.50;;;;;;;10.46;100.00;101881.50;4711353;29;20116;-71
2022/05/14 04:49:20;;;;;;;73.15;23.65;;;;;;;10.66;100.00;101877.19;4716033;29;20070;-71
2022/05/14 04:51:45;;;;;;;69.43;22.52;;;;;;;10.80;100.00;101878.19;4717470;29;20404;-71
2022/05/14 04:54:11;;;;;;;64.82;23.27;;;;;;;10.93;100.00;101878.34;4733048;29;20042;-72
2022/05/14 04:56:36;;;;;;;65.38;21.67;;;;;;;11.12;100.00;101886.84;4700644;29;20051;-71
2022/05/14 04:59:02;;;;;;;77.85;23.33;;;;;;;11.29;100.00;101899.06;4731601;29;20692;-72
2022/05/14 05:01:27;;;;;;;70.68;20.40;;;;;;;11.51;100.00;101896.38;4732727;29;20047;-71
2022/05/14 05:03:53;;;;;;;72.78;20.15;;;;;;;11.65;100.00;101882.81;4717231;29;26621;-71
2022/05/14 05:06:18;;;;;;;55.13;19.77;;;;;;;11.80;100.00;101895.41;4733260;29;20067;-72
2022/05/14 05:08:44;;;;;;;55.22;17.50;;;;;;;12.06;100.00;101905.59;4699261;29;20126;-71
2022/05/14 05:11:10;;;;;;;60.90;18.65;;;;;;;12.30;100.00;101913.25;4712932;29;20039;-71
2022/05/14 05:13:35;;;;;;;53.33;15.65;;;;;;;12.58;100.00;101905.09;4699921;29;23952;-71
2022/05/14 05:16:01;;;;;;;52.28;15.57;;;;;;;13.36;100.00;101893.94;4713330;29;20228;-71
2022/05/14 05:18:28;;;;;;;48.55;13.95;;;;;;;13.57;100.00;101893.75;4685195;29;20054;-71
2022/05/14 05:20:54;;;;;;;39.97;12.07;;;;;;;14.19;100.00;101902.50;4712030;29;20085;-71
2022/05/14 05:23:22;;;;;;;44.92;12.75;;;;;;;15.22;100.00;101902.53;4713262;29;20039;-72
2022/05/14 05:25:48;;;;;;;45.40;13.05;;;;;;;15.54;100.00;101902.53;4699105;29;20050;-71
2022/05/14 05:28:13;;;;;;;32.55;12.00;;;;;;;14.84;100.00;101905.22;4730031;29;20586;-71
2022/05/14 05:30:39;;;;;;;45.40;12.20;;;;;;;14.21;100.00;101910.38;4709016;29;20050;-71
2022/05/14 05:33:10;;;;;;;43.15;12.38;;;;;;;13.72;100.00;101920.63;4721961;29;22042;-72
2022/05/14 05:35:37;;;;;;;45.10;12.32;;;;;;;13.59;100.00;101928.75;4715983;29;20058;-71
2022/05/14 05:38:02;;;;;;;51.13;13.27;;;;;;;13.56;100.00;101919.16;4716408;29;20042;-71
2022/05/14 05:40:28;;;;;;;38.58;12.20;;;;;;;13.79;100.00;101920.63;4703458;29;20078;-71
2022/05/14 05:42:53;;;;;;;43.70;11.95;;;;;;;14.15;100.00;101922.09;4718156;29;20534;-71
2022/05/14 05:45:19;;;;;;;38.50;10.75;;;;;;;15.02;100.00;101921.66;4732123;29;20043;-70
2022/05/14 05:47:44;;;;;;;37.95;11.75;;;;;;;16.32;100.00;101934.72;4728397;29;20100;-71
2022/05/14 05:50:11;;;;;;;40.65;10.75;;;;;;;17.66;100.00;101923.81;4731478;29;20062;-71
2022/05/14 05:52:36;;;;;;;38.45;10.57;;;;;;;18.62;100.00;101932.63;4719131;29;20504;-70
2022/05/14 05:57:46;;;;;;;30.83;9.68;;;;;;;20.14;100.00;101938.47;4713169;29;20053;-71
2022/05/14 06:00:15;;;;;;;30.67;9.07;;;;;;;20.26;97.05;101951.00;4728552;29;20042;-71
2022/05/14 06:02:41;;;;;;;37.38;10.23;;;;;;;20.57;87.26;101954.22;4723467;29;20560;-70
2022/05/14 06:05:07;;;;;;;43.58;10.05;;;;;;;21.41;76.12;101942.91;4721894;29;20064;-71
2022/05/14 06:07:33;;;;;;;34.13;9.18;;;;;;;21.31;68.70;101945.50;4732637;29;24775;-71
2022/05/14 06:09:59;;;;;;;33.83;8.30;;;;;;;20.77;71.46;101944.59;4699462;29;20230;-71
2022/05/14 06:12:24;;;;;;;28.10;8.55;;;;;;;20.57;74.28;101954.22;4730267;29;20058;-71
2022/05/14 06:14:50;;;;;;;27.67;8.30;;;;;;;20.04;84.16;101961.03;4683533;29;20057;-71
2022/05/14 06:17:15;;;;;;;29.73;8.93;;;;;;;19.02;96.55;101959.16;4733319;29;20645;-71
2022/05/14 06:19:42;;;;;;;34.22;8.07;;;;;;;17.84;100.00;101964.66;4703318;29;20458;-73
2022/05/14 06:22:08;;;;;;;30.75;7.78;;;;;;;16.97;100.00;101955.16;4737096;29;20043;-73
2022/05/14 06:24:36;;;;;;;30.13;8.32;;;;;;;16.41;100.00;101959.72;4719168;29;20039;-72
2022/05/14 06:27:02;;;;;;;38.55;8.40;;;;;;;16.02;100.00;101966.38;4724240;29;20111;-73
2022/05/14 06:29:28;;;;;;;34.15;7.88;;;;;;;15.76;100.00;101976.41;4719578;29;20047;-73
2022/05/14 06:31:54;;;;;;;29.50;7.32;;;;;;;15.60;100.00;101974.16;4718021;29;20090;-73
2022/05/14 06:34:19;;;;;;;37.78;8.00;;;;;;;16.27;100.00;101964.47;4736277;29;20039;-73
2022/05/14 06:36:45;;;;;;;34.05;7.07;;;;;;;17.96;100.00;101972.00;4713999;29;20385;-73
2022/05/14 06:39:10;;;;;;;28.95;7.78;;;;;;;19.68;85.19;101967.81;4717635;29;20516;-73
2022/05/14 06:41:36;;;;;;;29.40;6.75;;;;;;;20.66;68.66;101979.22;4720719;29;20043;-73
2022/05/14 06:44:01;;;;;;;29.38;7.90;;;;;;;21.55;63.75;101984.44;4733849;29;20055;-73
2022/05/14 06:46:27;;;;;;;28.85;7.63;;;;;;;21.95;57.30;101974.94;4734945;29;20449;-72
2022/05/14 06:48:52;;;;;;;40.45;9.70;;;;;;;22.27;56.12;101987.81;4720357;29;20039;-72
2022/05/14 06:51:21;;;;;;;36.25;9.30;;;;;;;22.77;53.39;101986.47;4736431;29;20043;-72
2022/05/14 06:53:46;;;;;;;29.45;7.00;;;;;;;22.20;53.34;101998.19;4707822;29;20055;-72
2022/05/14 06:56:13;;;;;;;24.98;6.68;;;;;;;22.67;52.06;101997.41;4719109;29;20131;-72
2022/05/14 06:58:40;;;;;;;28.08;7.78;;;;;;;22.32;51.73;101999.69;4721363;29;20519;-73
2022/05/14 07:01:06;;;;;;;28.30;6.63;;;;;;;22.24;52.18;101994.66;4717856;29;20047;-73
2022/05/14 07:09:00;;;;;;;26.95;7.57;;;;;;;22.25;50.33;102007.28;4729971;29;20039;-75
2022/05/14 07:11:26;;;;;;;27.23;9.32;;;;;;;22.50;47.83;102003.06;4722692;29;22632;-73
2022/05/14 07:13:52;;;;;;;22.50;6.50;;;;;;;22.73;46.67;102001.84;4731931;29;20132;-73
2022/05/14 07:16:17;;;;;;;28.42;8.57;;;;;;;23.15;45.79;102004.53;4686005;29;20050;-73
2022/05/14 07:18:43;;;;;;;27.25;10.40;;;;;;;23.03;45.81;102012.19;4717689;29;20142;-73
2022/05/14 07:21:09;;;;;;;29.80;11.65;;;;;;;23.01;46.17;102017.94;4712180;29;20043;-73
2022/05/14 07:23:34;;;;;;;25.98;8.93;;;;;;;23.36;45.37;102004.59;4716379;29;20059;-73
2022/05/14 07:26:06;;;;;;;31.00;7.10;;;;;;;23.03;45.03;102007.50;4718374;29;20658;-73
2022/05/14 07:28:36;;;;;;;21.95;7.82;;;;;;;22.36;47.18;102010.94;4729970;29;20119;-73
2022/05/14 07:31:01;;;;;;;21.40;5.40;;;;;;;22.24;46.45;102010.28;4726195;29;20625;-73
2022/05/14 07:33:27;;;;;;;22.40;7.05;;;;;;;21.84;48.08;102022.56;4720064;29;20103;-73
2022/05/14 07:35:54;;;;;;;20.80;5.68;;;;;;;22.39;46.50;102007.66;4729195;29;23477;-73
2022/05/14 07:38:19;;;;;;;23.67;6.40;;;;;;;22.99;43.94;102027.53;4702594;29;20055;-73
2022/05/14 07:40:45;;;;;;;26.63;6.07;;;;;;;21.95;45.27;102024.31;4731513;29;20059;-73
2022/05/14 07:43:16;;;;;;;26.05;6.80;;;;;;;21.32;47.43;102014.84;4717334;29;20071;-72
2022/05/14 07:45:44;;;;;;;23.17;6.45;;;;;;;21.25;48.50;102019.69;4731590;29;20042;-73
2022/05/14 07:48:13;;;;;;;28.35;6.78;;;;;;;20.84;48.98;102027.38;4700393;29;20113;-71
2022/05/14 07:50:39;;;;;;;32.95;10.63;;;;;;;20.63;50.54;102018.88;4730227;29;20043;-73
2022/05/14 07:53:05;;;;;;;22.02;6.32;;;;;;;21.31;48.95;102033.22;4731438;29;20379;-70
2022/05/14 07:55:33;;;;;;;15.85;4.78;;;;;;;21.26;48.33;102029.56;4718124;29;20074;-72
2022/05/14 07:57:58;;;;;;;23.00;5.43;;;;;;;21.15;49.44;102032.19;4729609;29;20039;-72
2022/05/14 08:00:23;;;;;;;23.70;5.75;;;;;;;21.28;47.95;102032.91;4717425;29;20644;-72
2022/05/14 08:02:49;;;;;;;20.52;5.68;;;;;;;21.17;47.60;102035.50;4733154;29;20058;-72
2022/05/14 08:05:16;;;;;;;24.17;6.80;;;;;;;21.59;47.87;102032.19;4714967;29;20054;-72
2022/05/14 08:07:41;;;;;;;23.38;7.38;;;;;;;22.47;45.99;102017.34;4715079;29;20043;-73
2022/05/14 08:10:08;;;;;;;24.58;6.00;;;;;;;23.23;44.76;102022.41;4716632;29;20057;-73
2022/05/14 08:12:39;;;;;;;22.33;5.97;;;;;;;23.16;44.10;102032.84;4714855;29;20835;-73
2022/05/14 08:15:07;;;;;;;22.58;5.78;;;;;;;22.67;45.33;102030.34;4730321;29;20057;-73
2022/05/14 08:17:32;;;;;;;17.88;5.13;;;;;;;22.98;45.07;102034.13;4718983;29;20381;-73
2022/05/14 08:19:58;;;;;;;21.90;6.53;;;;;;;23.13;43.93;102028.72;4731671;29;20055;-73
2022/05/14 08:25:09;;;;;;;20.90;6.60;;;;;;;23.82;41.83;102022.03;4729045;29;20062;-73
2022/05/14 08:27:44;;;;;;;24.05;5.80;;;;;;;23.77;42.03;102028.38;4700610;29;20997;-73
2022/05/14 08:30:31;;;;;;;22.55;6.07;;;;;;;24.05;41.29;102023.44;4717759;29;20671;-73
2022/05/14 08:32:57;;;;;;;20.42;5.47;;;;;;;23.92;42.39;102035.00;4711535;29;20074;-73
2022/05/14 08:35:23;;;;;;;20.65;5.80;;;;;;;24.13;41.83;102039.41;4734202;29;20043;-73
2022/05/14 08:37:49;;;;;;;17.05;6.15;;;;;;;24.30;41.13;102036.38;4699765;29;20047;-73
2022/05/14 08:40:17;;;;;;;23.27;5.57;;;;;;;24.62;40.17;102043.53;4732894;29;20055;-74
2022/05/14 08:42:43;;;;;;;28.25;8.18;;;;;;;24.61;40.03;102030.88;4729439;29;20038;-73
2022/05/14 08:45:15;;;;;;;27.83;8.20;;;;;;;24.27;41.00;102042.44;4716349;29;20038;-73
2022/05/14 08:47:47;;;;;;;24.92;6.40;;;;;;;24.04;41.82;102043.78;4728064;29;20042;-72
2022/05/14 08:50:12;;;;;;;20.70;5.97;;;;;;;24.37;41.96;102042.44;4697158;29;20058;-72
2022/05/14 08:52:38;;;;;;;21.30;5.50;;;;;;;24.52;40.62;102045.19;4712282;29;20413;-72
2022/05/14 08:55:17;;;;;;;20.90;5.70;;;;;;;24.33;41.22;102043.25;4713590;29;20365;-72
2022/05/14 08:58:07;;;;;;;25.13;6.25;;;;;;;23.91;41.40;102039.69;4727954;29;20065;-74
2022/05/14 09:00:32;;;;;;;25.50;6.57;;;;;;;23.47;42.42;102040.09;4714103;29;20074;-73
2022/05/14 09:02:58;;;;;;;25.55;6.90;;;;;;;23.35;42.12;102034.03;4732244;29;20045;-73
2022/05/14 09:05:30;;;;;;;24.52;6.72;;;;;;;23.28;42.58;102031.53;4715934;29;20075;-73
2022/05/14 09:07:56;;;;;;;22.30;6.32;;;;;;;23.45;42.86;102041.47;4714724;29;20092;-73
2022/05/14 09:10:21;;;;;;;23.73;6.43;;;;;;;23.70;41.55;102027.00;4731245;29;20380;-73
2022/05/14 09:12:57;;;;;;;25.48;6.50;;;;;;;23.65;41.28;102035.19;4716134;29;20058;-73
2022/05/14 09:15:24;;;;;;;20.23;6.03;;;;;;;23.31;41.95;102041.16;4728192;29;20045;-73
2022/05/14 09:18:03;;;;;;;21.45;6.15;;;;;;;22.91;42.93;102037.09;4700822;29;20054;-73
2022/05/14 09:20:29;;;;;;;22.05;6.45;;;;;;;23.30;43.26;102036.72;4730179;29;20045;-73
2022/05/14 09:22:56;;;;;;;24.55;5.93;;;;;;;23.73;42.38;102038.28;4717922;29;20054;-73
2022/05/14 09:25:26;;;;;;;20.23;5.63;;;;;;;24.02;41.89;102046.00;4715273;29;20050;-73
2022/05/14 09:28:04;;;;;;;19.63;5.20;;;;;;;24.14;40.60;102056.75;4714330;29;20982;-73
2022/05/14 09:30:36;;;;;;;20.38;6.35;;;;;;;23.91;40.82;102056.19;4719978;29;20047;-73
2022/05/14 09:33:03;;;;;;;24.25;5.90;;;;;;;24.12;40.12;102050.69;4698765;29;20062;-73
2022/05/14 09:35:32;;;;;;;23.27;6.38;;;;;;;23.96;40.40;102045.16;4731635;29;21253;-73
2022/05/14 09:38:28;;;;;;;18.65;5.88;;;;;;;24.23;40.89;102041.34;4709473;29;20806;-73
2022/05/14 09:40:55;;;;;;;26.30;6.38;;;;;;;24.60;40.86;102045.72;4700034;29;20089;-73
2022/05/14 09:43:23;;;;;;;23.30;6.50;;;;;;;24.59;39.41;102044.91;4729066;29;20054;-73
2022/05/14 09:46:00;;;;;;;21.75;6.40;;;;;;;24.64;39.52;102052.31;4716744;29;20058;-73
2022/05/14 09:48:51;;;;;;;20.45;5.85;;;;;;;24.04;39.80;102055.66;4716529;29;20123;-73
2022/05/14 09:51:37;;;;;;;27.83;8.05;;;;;;;23.23;41.93;102066.41;4717779;29;20392;-73
2022/05/14 09:54:16;;;;;;;30.58;8.88;;;;;;;23.33;42.44;102063.69;4734210;29;20039;-73
2022/05/14 09:57:12;;;;;;;28.50;9.98;;;;;;;23.36;42.73;102068.66;4717408;29;20057;-73
2022/05/14 09:59:40;;;;;;;23.63;6.30;;;;;;;22.80;43.26;102065.59;4734346;29;20206;-73
2022/05/14 10:02:18;;;;;;;22.10;7.55;;;;;;;23.25;43.86;102061.47;4707657;29;23215;-73
2022/05/14 10:04:53;;;;;;;22.38;6.78;;;;;;;23.64;41.80;102072.06;4732060;29;20104;-73
2022/05/14 10:07:40;;;;;;;28.92;7.85;;;;;;;24.23;40.26;102069.69;4720075;29;20054;-73
2022/05/14 10:10:30;;;;;;;25.10;6.78;;;;;;;24.37;39.87;102063.63;4710142;29;20047;-73
2022/05/14 10:12:57;;;;;;;23.45;6.40;;;;;;;24.41;38.82;102053.75;4719085;29;20381;-71
2022/05/14 10:15:38;;;;;;;20.50;6.05;;;;;;;24.93;38.42;102071.84;4718486;29;20653;-73
2022/05/14 10:18:22;;;;;;;20.77;6.00;;;;;;;24.95;37.28;102064.91;4720208;29;20160;-73
2022/05/14 10:21:03;;;;;;;24.48;6.53;;;;;;;24.67;38.39;102068.28;4718946;29;20066;-73
2022/05/14 10:27:17;;;;;;;22.45;6.28;;;;;;;23.65;39.16;102070.94;4732083;29;20062;-73
2022/05/14 10:29:55;;;;;;;21.40;6.13;;;;;;;23.25;40.40;102077.97;4719693;29;20074;-73
2022/05/14 10:32:30;;;;;;;23.48;6.20;;;;;;;22.48;41.16;102082.13;4732320;29;20500;-73
2022/05/14 10:35:10;;;;;;;22.85;5.50;;;;;;;21.70;42.92;102081.66;4705219;29;23917;-73
2022/05/14 10:37:57;;;;;;;17.00;6.32;;;;;;;21.50;45.03;102072.09;4735271;29;20047;-73
2022/05/14 10:40:34;;;;;;;21.05;5.32;;;;;;;22.28;43.74;102074.56;4717613;29;20082;-73
2022/05/14 10:43:35;;;;;;;23.80;7.03;;;;;;;23.32;42.92;102076.63;4720170;29;20040;-73
2022/05/14 10:46:06;;;;;;;18.73;6.25;;;;;;;24.48;39.93;102082.66;4719196;29;20068;-72
2022/05/14 10:48:32;;;;;;;24.17;6.88;;;;;;;24.55;38.71;102078.78;4734631;29;20095;-73
2022/05/14 10:50:58;;;;;;;19.95;6.57;;;;;;;24.36;38.75;102073.81;4721008;29;20173;-73
2022/05/14 10:53:23;;;;;;;25.73;6.55;;;;;;;24.35;38.47;102082.34;4732586;29;20126;-73
2022/05/14 10:55:59;;;;;;;21.33;6.90;;;;;;;24.61;38.56;102069.44;4733702;29;20043;-73
2022/05/14 10:58:42;;;;;;;23.85;6.22;;;;;;;24.90;37.60;102067.69;4724210;29;20055;-73
2022/05/14 11:01:09;;;;;;;16.67;5.63;;;;;;;25.67;36.30;102076.50;4719485;29;20063;-73
2022/05/14 11:03:40;;;;;;;24.50;6.95;;;;;;;26.28;34.96;102075.25;4703458;29;20047;-73
2022/05/14 11:06:11;;;;;;;20.15;6.18;;;;;;;26.24;34.65;102081.66;4733786;29;22370;-73
2022/05/14 11:08:46;;;;;;;21.45;6.32;;;;;;;25.60;35.98;102075.16;4716948;29;20133;-74
2022/05/14 11:11:20;;;;;;;23.05;6.85;;;;;;;25.26;37.57;102075.06;4734338;29;20138;-73
2022/05/14 11:14:04;;;;;;;18.13;6.30;;;;;;;24.78;36.30;102080.97;4702486;29;20415;-71
2022/05/14 11:16:39;;;;;;;21.60;7.13;;;;;;;23.80;38.82;102087.53;4734129;29;20246;-72
2022/05/14 11:19:07;;;;;;;23.50;7.18;;;;;;;23.31;40.51;102079.66;4721558;29;20051;-73
2022/05/14 11:21:42;;;;;;;19.55;5.82;;;;;;;23.32;39.43;102087.63;4720718;29;20050;-73
2022/05/14 11:24:11;;;;;;;26.70;7.03;;;;;;;24.08;38.72;102072.44;4709854;29;20056;-73
2022/05/14 11:27:03;;;;;;;18.02;6.45;;;;;;;24.49;37.27;102078.78;4714795;29;20034;-74
2022/05/14 11:29:33;;;;;;;22.08;6.93;;;;;;;25.14;37.67;102080.91;4708466;29;20151;-72
2022/05/14 11:32:02;;;;;;;22.30;6.95;;;;;;;26.08;34.93;102097.50;4715510;29;20198;-72
2022/05/14 11:34:28;;;;;;;19.42;6.45;;;;;;;26.15;34.44;102093.34;4712831;29;20121;-73
2022/05/14 11:36:56;;;;;;;23.63;8.13;;;;;;;26.41;34.50;102088.41;4702586;29;20057;-73